Terminal Aerodrome Forecast
Issued by NWS

Home | Current Version | Previous Version | Text Only | Print | Product List | Glossary On
Versions: 1 2 3 4 5 6 7 8 9 10 11 12 13 14 15 16 17 18 19 20 21 22
868
FTUS43 KDDC 221722
TAFGCK
TAF
KGCK 221722Z 2218/2318 15015G22KT P6SM OVC007
     FM222100 15015G22KT P6SM OVC012
     FM230100 13011KT P6SM OVC007
     FM231100 13012KT 6SM -SHRA BR OVC003=

USA.gov is the U.S. government's official web portal to all federal, state and local government web resources and services.